sensor_id;sensor_type;location;lat;lon;timestamp;temperature;humidity
10051;DHT22;5065;46.942;7.432;2022-07-06T00:02:23;21.10;93.60
10051;DHT22;5065;46.942;7.432;2022-07-06T00:04:52;21.00;93.70
10051;DHT22;5065;46.942;7.432;2022-07-06T00:07:22;21.10;93.90
10051;DHT22;5065;46.942;7.432;2022-07-06T00:09:49;21.00;94.10
10051;DHT22;5065;46.942;7.432;2022-07-06T00:12:17;21.00;94.10
10051;DHT22;5065;46.942;7.432;2022-07-06T00:14:44;21.00;94.40
10051;DHT22;5065;46.942;7.432;2022-07-06T00:17:11;21.00;94.40
10051;DHT22;5065;46.942;7.432;2022-07-06T00:19:39;20.90;94.50
10051;DHT22;5065;46.942;7.432;2022-07-06T00:22:08;20.90;94.60
10051;DHT22;5065;46.942;7.432;2022-07-06T00:24:35;20.90;94.50
10051;DHT22;5065;46.942;7.432;2022-07-06T00:27:03;20.90;94.60
10051;DHT22;5065;46.942;7.432;2022-07-06T00:29:30;20.90;94.60
10051;DHT22;5065;46.942;7.432;2022-07-06T00:31:58;20.90;94.80
10051;DHT22;5065;46.942;7.432;2022-07-06T00:34:25;20.90;94.90
10051;DHT22;5065;46.942;7.432;2022-07-06T00:36:53;20.80;95.00
10051;DHT22;5065;46.942;7.432;2022-07-06T00:39:22;20.80;95.20
10051;DHT22;5065;46.942;7.432;2022-07-06T00:41:55;20.80;95.40
10051;DHT22;5065;46.942;7.432;2022-07-06T00:44:23;20.80;95.50
10051;DHT22;5065;46.942;7.432;2022-07-06T00:46:50;20.80;95.80
10051;DHT22;5065;46.942;7.432;2022-07-06T00:49:20;20.80;95.90
10051;DHT22;5065;46.942;7.432;2022-07-06T00:52:05;20.80;96.40
10051;DHT22;5065;46.942;7.432;2022-07-06T00:54:36;20.70;96.20
10051;DHT22;5065;46.942;7.432;2022-07-06T00:57:06;20.70;96.50
10051;DHT22;5065;46.942;7.432;2022-07-06T00:59:35;20.60;96.30
10051;DHT22;5065;46.942;7.432;2022-07-06T01:02:03;20.70;96.40
10051;DHT22;5065;46.942;7.432;2022-07-06T01:04:30;20.70;96.20
10051;DHT22;5065;46.942;7.432;2022-07-06T01:06:58;20.60;96.10
10051;DHT22;5065;46.942;7.432;2022-07-06T01:09:28;20.60;96.10
10051;DHT22;5065;46.942;7.432;2022-07-06T01:12:00;20.60;96.10
10051;DHT22;5065;46.942;7.432;2022-07-06T01:14:27;20.60;96.10
10051;DHT22;5065;46.942;7.432;2022-07-06T01:16:55;20.60;96.20
10051;DHT22;5065;46.942;7.432;2022-07-06T01:19:23;20.60;96.30
10051;DHT22;5065;46.942;7.432;2022-07-06T01:21:52;20.60;96.40
10051;DHT22;5065;46.942;7.432;2022-07-06T01:24:19;20.50;96.60
10051;DHT22;5065;46.942;7.432;2022-07-06T01:26:46;20.50;96.70
10051;DHT22;5065;46.942;7.432;2022-07-06T01:29:14;20.50;96.80
10051;DHT22;5065;46.942;7.432;2022-07-06T01:31:46;20.50;96.90
10051;DHT22;5065;46.942;7.432;2022-07-06T01:34:14;20.50;97.00
10051;DHT22;5065;46.942;7.432;2022-07-06T01:36:43;20.50;97.10
10051;DHT22;5065;46.942;7.432;2022-07-06T01:39:11;20.50;97.20
10051;DHT22;5065;46.942;7.432;2022-07-06T01:41:43;20.40;97.00
10051;DHT22;5065;46.942;7.432;2022-07-06T01:44:11;20.40;97.10
10051;DHT22;5065;46.942;7.432;2022-07-06T01:46:39;20.30;97.20
10051;DHT22;5065;46.942;7.432;2022-07-06T01:49:06;20.30;97.10
10051;DHT22;5065;46.942;7.432;2022-07-06T01:51:35;20.30;97.10
10051;DHT22;5065;46.942;7.432;2022-07-06T01:54:02;20.20;97.10
10051;DHT22;5065;46.942;7.432;2022-07-06T01:56:32;20.20;97.20
10051;DHT22;5065;46.942;7.432;2022-07-06T01:59:00;20.20;97.30
10051;DHT22;5065;46.942;7.432;2022-07-06T02:01:29;20.10;97.20
10051;DHT22;5065;46.942;7.432;2022-07-06T02:03:56;20.10;97.20
10051;DHT22;5065;46.942;7.432;2022-07-06T02:06:24;20.10;97.30
10051;DHT22;5065;46.942;7.432;2022-07-06T02:08:51;20.00;97.30
10051;DHT22;5065;46.942;7.432;2022-07-06T02:11:20;20.00;97.50
10051;DHT22;5065;46.942;7.432;2022-07-06T02:13:48;20.00;97.50
10051;DHT22;5065;46.942;7.432;2022-07-06T02:16:15;20.00;97.70
10051;DHT22;5065;46.942;7.432;2022-07-06T02:18:43;20.00;97.60
10051;DHT22;5065;46.942;7.432;2022-07-06T02:21:10;20.00;97.80
10051;DHT22;5065;46.942;7.432;2022-07-06T02:23:37;20.00;97.90
10051;DHT22;5065;46.942;7.432;2022-07-06T02:26:05;19.90;98.00
10051;DHT22;5065;46.942;7.432;2022-07-06T02:28:32;19.90;97.90
10051;DHT22;5065;46.942;7.432;2022-07-06T02:31:01;19.80;98.00
10051;DHT22;5065;46.942;7.432;2022-07-06T02:33:29;19.80;98.00
10051;DHT22;5065;46.942;7.432;2022-07-06T02:35:56;19.80;98.30
10051;DHT22;5065;46.942;7.432;2022-07-06T02:38:25;19.80;98.40
10051;DHT22;5065;46.942;7.432;2022-07-06T02:40:52;19.70;98.50
10051;DHT22;5065;46.942;7.432;2022-07-06T02:43:19;19.70;98.40
10051;DHT22;5065;46.942;7.432;2022-07-06T02:45:47;19.70;98.50
10051;DHT22;5065;46.942;7.432;2022-07-06T02:48:15;19.70;98.90
10051;DHT22;5065;46.942;7.432;2022-07-06T02:50:43;19.60;98.80
10051;DHT22;5065;46.942;7.432;2022-07-06T02:53:10;19.60;99.10
10051;DHT22;5065;46.942;7.432;2022-07-06T02:55:38;19.60;99.10
10051;DHT22;5065;46.942;7.432;2022-07-06T02:58:05;19.50;99.20
10051;DHT22;5065;46.942;7.432;2022-07-06T03:00:32;19.50;99.50
10051;DHT22;5065;46.942;7.432;2022-07-06T03:03:02;19.40;99.80
10051;DHT22;5065;46.942;7.432;2022-07-06T03:05:31;19.40;99.90
10051;DHT22;5065;46.942;7.432;2022-07-06T03:07:58;19.40;99.90
10051;DHT22;5065;46.942;7.432;2022-07-06T03:10:25;19.40;99.90
10051;DHT22;5065;46.942;7.432;2022-07-06T03:12:52;19.30;99.90
10051;DHT22;5065;46.942;7.432;2022-07-06T03:15:19;19.30;99.90
10051;DHT22;5065;46.942;7.432;2022-07-06T03:17:47;19.30;99.90
10051;DHT22;5065;46.942;7.432;2022-07-06T03:20:14;19.20;99.90
10051;DHT22;5065;46.942;7.432;2022-07-06T03:22:43;19.20;99.90
10051;DHT22;5065;46.942;7.432;2022-07-06T03:25:10;19.20;99.90
10051;DHT22;5065;46.942;7.432;2022-07-06T03:27:37;19.20;99.90
10051;DHT22;5065;46.942;7.432;2022-07-06T03:30:05;19.20;99.90
10051;DHT22;5065;46.942;7.432;2022-07-06T03:32:33;19.20;99.90
10051;DHT22;5065;46.942;7.432;2022-07-06T03:35:00;19.20;99.90
10051;DHT22;5065;46.942;7.432;2022-07-06T03:37:27;19.10;99.90
10051;DHT22;5065;46.942;7.432;2022-07-06T03:39:56;19.10;99.90
10051;DHT22;5065;46.942;7.432;2022-07-06T03:42:23;19.10;99.90
10051;DHT22;5065;46.942;7.432;2022-07-06T03:44:50;19.10;99.90
10051;DHT22;5065;46.942;7.432;2022-07-06T03:47:18;19.00;99.90
10051;DHT22;5065;46.942;7.432;2022-07-06T03:49:45;19.00;99.90
10051;DHT22;5065;46.942;7.432;2022-07-06T03:52:12;19.00;99.90
10051;DHT22;5065;46.942;7.432;2022-07-06T03:54:39;18.90;99.90
10051;DHT22;5065;46.942;7.432;2022-07-06T03:57:08;18.90;99.90
10051;DHT22;5065;46.942;7.432;2022-07-06T03:59:37;18.90;99.90
10051;DHT22;5065;46.942;7.432;2022-07-06T04:02:04;18.90;99.90
10051;DHT22;5065;46.942;7.432;2022-07-06T04:04:31;18.90;99.90
10051;DHT22;5065;46.942;7.432;2022-07-06T04:07:00;18.90;99.90
10051;DHT22;5065;46.942;7.432;2022-07-06T04:09:27;18.90;99.90
10051;DHT22;5065;46.942;7.432;2022-07-06T04:11:54;18.80;99.90
10051;DHT22;5065;46.942;7.432;2022-07-06T04:14:23;18.80;99.90
10051;DHT22;5065;46.942;7.432;2022-07-06T04:16:51;18.90;99.90
10051;DHT22;5065;46.942;7.432;2022-07-06T04:19:18;18.90;99.90
10051;DHT22;5065;46.942;7.432;2022-07-06T04:21:45;18.80;99.90
10051;DHT22;5065;46.942;7.432;2022-07-06T04:24:13;18.90;99.90
10051;DHT22;5065;46.942;7.432;2022-07-06T04:26:40;18.90;99.90
10051;DHT22;5065;46.942;7.432;2022-07-06T04:29:07;18.90;99.90
10051;DHT22;5065;46.942;7.432;2022-07-06T04:31:36;18.80;99.90
10051;DHT22;5065;46.942;7.432;2022-07-06T04:34:04;18.80;99.90
10051;DHT22;5065;46.942;7.432;2022-07-06T04:36:32;18.80;99.90
10051;DHT22;5065;46.942;7.432;2022-07-06T04:38:59;18.80;99.90
10051;DHT22;5065;46.942;7.432;2022-07-06T04:41:31;18.80;99.90
10051;DHT22;5065;46.942;7.432;2022-07-06T04:43:58;18.80;99.90
10051;DHT22;5065;46.942;7.432;2022-07-06T04:46:25;18.80;99.90
10051;DHT22;5065;46.942;7.432;2022-07-06T04:48:56;18.90;99.90
10051;DHT22;5065;46.942;7.432;2022-07-06T04:51:24;18.80;99.90
10051;DHT22;5065;46.942;7.432;2022-07-06T04:53:51;18.90;99.90
10051;DHT22;5065;46.942;7.432;2022-07-06T04:56:18;18.90;99.90
10051;DHT22;5065;46.942;7.432;2022-07-06T04:58:46;19.00;99.90
10051;DHT22;5065;46.942;7.432;2022-07-06T05:01:14;19.10;99.90
10051;DHT22;5065;46.942;7.432;2022-07-06T05:03:41;19.20;99.90
10051;DHT22;5065;46.942;7.432;2022-07-06T05:06:09;19.40;99.90
10051;DHT22;5065;46.942;7.432;2022-07-06T05:08:37;19.40;99.90
10051;DHT22;5065;46.942;7.432;2022-07-06T05:11:04;19.50;99.90
10051;DHT22;5065;46.942;7.432;2022-07-06T05:13:31;19.60;99.90
10051;DHT22;5065;46.942;7.432;2022-07-06T05:15:59;19.80;99.90
10051;DHT22;5065;46.942;7.432;2022-07-06T05:18:26;20.10;99.90
10051;DHT22;5065;46.942;7.432;2022-07-06T05:20:53;20.30;99.90
10051;DHT22;5065;46.942;7.432;2022-07-06T05:23:22;20.50;99.90
10051;DHT22;5065;46.942;7.432;2022-07-06T05:25:49;20.80;99.90
10051;DHT22;5065;46.942;7.432;2022-07-06T05:28:16;21.10;99.90
10051;DHT22;5065;46.942;7.432;2022-07-06T05:30:43;21.50;99.90
10051;DHT22;5065;46.942;7.432;2022-07-06T05:33:11;21.90;99.90
10051;DHT22;5065;46.942;7.432;2022-07-06T05:35:38;22.10;99.90
10051;DHT22;5065;46.942;7.432;2022-07-06T05:38:05;22.50;99.90
10051;DHT22;5065;46.942;7.432;2022-07-06T05:40:33;22.90;99.90
10051;DHT22;5065;46.942;7.432;2022-07-06T05:43:01;23.30;99.90
10051;DHT22;5065;46.942;7.432;2022-07-06T05:45:28;23.70;99.90
10051;DHT22;5065;46.942;7.432;2022-07-06T05:47:55;24.00;99.90
10051;DHT22;5065;46.942;7.432;2022-07-06T05:50:40;24.20;99.90
10051;DHT22;5065;46.942;7.432;2022-07-06T05:53:08;24.50;99.90
10051;DHT22;5065;46.942;7.432;2022-07-06T05:55:36;24.80;99.30
10051;DHT22;5065;46.942;7.432;2022-07-06T05:58:03;25.00;97.80
10051;DHT22;5065;46.942;7.432;2022-07-06T06:00:31;25.20;98.50
10051;DHT22;5065;46.942;7.432;2022-07-06T06:02:58;25.60;98.20
10051;DHT22;5065;46.942;7.432;2022-07-06T06:05:25;25.90;97.40
10051;DHT22;5065;46.942;7.432;2022-07-06T06:07:53;26.20;95.60
10051;DHT22;5065;46.942;7.432;2022-07-06T06:10:20;26.40;94.50
10051;DHT22;5065;46.942;7.432;2022-07-06T06:12:50;26.60;95.30
10051;DHT22;5065;46.942;7.432;2022-07-06T06:15:18;26.90;94.20
10051;DHT22;5065;46.942;7.432;2022-07-06T06:17:45;27.00;92.50
10051;DHT22;5065;46.942;7.432;2022-07-06T06:20:14;27.10;92.50
10051;DHT22;5065;46.942;7.432;2022-07-06T06:22:46;27.30;91.50
10051;DHT22;5065;46.942;7.432;2022-07-06T06:25:13;27.50;89.30
10051;DHT22;5065;46.942;7.432;2022-07-06T06:27:40;27.60;87.80
10051;DHT22;5065;46.942;7.432;2022-07-06T06:30:10;27.70;87.80
10051;DHT22;5065;46.942;7.432;2022-07-06T06:32:38;27.90;88.80
10051;DHT22;5065;46.942;7.432;2022-07-06T06:35:06;28.30;88.00
10051;DHT22;5065;46.942;7.432;2022-07-06T06:37:33;28.50;87.70
10051;DHT22;5065;46.942;7.432;2022-07-06T06:40:02;28.70;86.80
10051;DHT22;5065;46.942;7.432;2022-07-06T06:42:29;28.90;84.10
10051;DHT22;5065;46.942;7.432;2022-07-06T06:44:56;29.10;85.60
10051;DHT22;5065;46.942;7.432;2022-07-06T06:47:25;29.40;82.60
10051;DHT22;5065;46.942;7.432;2022-07-06T06:49:54;29.50;82.70
10051;DHT22;5065;46.942;7.432;2022-07-06T06:52:21;29.80;81.70
10051;DHT22;5065;46.942;7.432;2022-07-06T06:54:49;30.10;78.80
10051;DHT22;5065;46.942;7.432;2022-07-06T06:57:16;30.30;78.70
10051;DHT22;5065;46.942;7.432;2022-07-06T06:59:43;30.50;77.20
10051;DHT22;5065;46.942;7.432;2022-07-06T07:02:10;30.60;76.30
10051;DHT22;5065;46.942;7.432;2022-07-06T07:04:39;30.80;76.10
10051;DHT22;5065;46.942;7.432;2022-07-06T07:07:06;31.10;72.50
10051;DHT22;5065;46.942;7.432;2022-07-06T07:09:33;31.30;72.60
10051;DHT22;5065;46.942;7.432;2022-07-06T07:12:00;31.30;72.60
10051;DHT22;5065;46.942;7.432;2022-07-06T07:14:28;31.50;72.70
10051;DHT22;5065;46.942;7.432;2022-07-06T07:16:55;31.70;71.90
10051;DHT22;5065;46.942;7.432;2022-07-06T07:19:23;31.50;69.00
10051;DHT22;5065;46.942;7.432;2022-07-06T07:21:52;30.90;71.00
10051;DHT22;5065;46.942;7.432;2022-07-06T07:24:21;30.20;71.00
10051;DHT22;5065;46.942;7.432;2022-07-06T07:26:48;29.60;72.80
10051;DHT22;5065;46.942;7.432;2022-07-06T07:29:16;29.20;73.90
10051;DHT22;5065;46.942;7.432;2022-07-06T07:31:43;28.90;73.80
10051;DHT22;5065;46.942;7.432;2022-07-06T07:34:12;28.60;74.80
10051;DHT22;5065;46.942;7.432;2022-07-06T07:36:40;28.40;74.70
10051;DHT22;5065;46.942;7.432;2022-07-06T07:39:09;28.20;74.60
10051;DHT22;5065;46.942;7.432;2022-07-06T07:41:36;28.10;74.60
10051;DHT22;5065;46.942;7.432;2022-07-06T07:44:04;28.00;75.00
10051;DHT22;5065;46.942;7.432;2022-07-06T07:46:31;27.90;75.70
10051;DHT22;5065;46.942;7.432;2022-07-06T07:48:58;27.80;75.60
10051;DHT22;5065;46.942;7.432;2022-07-06T07:51:26;27.80;75.90
10051;DHT22;5065;46.942;7.432;2022-07-06T07:53:53;27.80;76.70
10051;DHT22;5065;46.942;7.432;2022-07-06T07:56:22;27.80;77.50
10051;DHT22;5065;46.942;7.432;2022-07-06T07:58:49;27.80;76.60
10051;DHT22;5065;46.942;7.432;2022-07-06T08:01:17;27.80;76.90
10051;DHT22;5065;46.942;7.432;2022-07-06T08:03:45;27.80;77.10
10051;DHT22;5065;46.942;7.432;2022-07-06T08:06:12;27.80;77.00
10051;DHT22;5065;46.942;7.432;2022-07-06T08:08:39;27.80;75.80
10051;DHT22;5065;46.942;7.432;2022-07-06T08:11:07;27.80;76.20
10051;DHT22;5065;46.942;7.432;2022-07-06T08:13:37;27.70;75.20
10051;DHT22;5065;46.942;7.432;2022-07-06T08:16:04;27.60;75.50
10051;DHT22;5065;46.942;7.432;2022-07-06T08:18:32;27.50;75.60
10051;DHT22;5065;46.942;7.432;2022-07-06T08:20:59;27.50;75.50
10051;DHT22;5065;46.942;7.432;2022-07-06T08:23:27;27.50;76.30
10051;DHT22;5065;46.942;7.432;2022-07-06T08:25:54;27.50;77.20
10051;DHT22;5065;46.942;7.432;2022-07-06T08:28:21;27.50;77.60
10051;DHT22;5065;46.942;7.432;2022-07-06T08:30:50;27.50;78.60
10051;DHT22;5065;46.942;7.432;2022-07-06T08:33:21;27.60;78.90
10051;DHT22;5065;46.942;7.432;2022-07-06T08:35:49;27.70;79.20
10051;DHT22;5065;46.942;7.432;2022-07-06T08:38:17;27.80;79.30
10051;DHT22;5065;46.942;7.432;2022-07-06T08:40:47;27.80;78.80
10051;DHT22;5065;46.942;7.432;2022-07-06T08:43:16;27.90;76.70
10051;DHT22;5065;46.942;7.432;2022-07-06T08:45:45;27.80;76.10
10051;DHT22;5065;46.942;7.432;2022-07-06T08:48:14;27.80;77.70
10051;DHT22;5065;46.942;7.432;2022-07-06T08:50:43;27.80;77.60
10051;DHT22;5065;46.942;7.432;2022-07-06T08:53:10;27.80;78.30
10051;DHT22;5065;46.942;7.432;2022-07-06T08:55:38;27.90;77.70
10051;DHT22;5065;46.942;7.432;2022-07-06T08:58:07;28.00;78.30
10051;DHT22;5065;46.942;7.432;2022-07-06T09:00:35;28.10;78.00
10051;DHT22;5065;46.942;7.432;2022-07-06T09:03:03;28.10;78.70
10051;DHT22;5065;46.942;7.432;2022-07-06T09:05:36;28.20;78.80
10051;DHT22;5065;46.942;7.432;2022-07-06T09:08:04;28.20;77.10
10051;DHT22;5065;46.942;7.432;2022-07-06T09:10:31;28.20;76.80
10051;DHT22;5065;46.942;7.432;2022-07-06T09:13:03;28.30;76.80
10051;DHT22;5065;46.942;7.432;2022-07-06T09:15:30;28.30;75.60
10051;DHT22;5065;46.942;7.432;2022-07-06T09:17:58;28.30;76.60
10051;DHT22;5065;46.942;7.432;2022-07-06T09:20:27;28.30;76.50
10051;DHT22;5065;46.942;7.432;2022-07-06T09:22:59;28.40;77.10
10051;DHT22;5065;46.942;7.432;2022-07-06T09:25:30;28.50;74.30
10051;DHT22;5065;46.942;7.432;2022-07-06T09:27:58;28.40;73.40
10051;DHT22;5065;46.942;7.432;2022-07-06T09:30:26;28.40;75.30
10051;DHT22;5065;46.942;7.432;2022-07-06T09:32:57;28.40;75.10
10051;DHT22;5065;46.942;7.432;2022-07-06T09:35:27;28.50;72.70
10051;DHT22;5065;46.942;7.432;2022-07-06T09:38:03;28.40;70.20
10051;DHT22;5065;46.942;7.432;2022-07-06T09:40:33;28.40;74.20
10051;DHT22;5065;46.942;7.432;2022-07-06T09:43:11;28.40;74.60
10051;DHT22;5065;46.942;7.432;2022-07-06T09:45:42;28.50;73.80
10051;DHT22;5065;46.942;7.432;2022-07-06T09:48:14;28.50;74.30
10051;DHT22;5065;46.942;7.432;2022-07-06T09:50:46;28.50;74.70
10051;DHT22;5065;46.942;7.432;2022-07-06T09:53:15;28.60;75.40
10051;DHT22;5065;46.942;7.432;2022-07-06T09:55:48;28.70;71.50
10051;DHT22;5065;46.942;7.432;2022-07-06T09:58:16;28.70;74.40
10051;DHT22;5065;46.942;7.432;2022-07-06T10:00:44;28.70;74.20
10051;DHT22;5065;46.942;7.432;2022-07-06T10:03:15;28.90;74.20
10051;DHT22;5065;46.942;7.432;2022-07-06T10:05:45;28.90;73.00
10051;DHT22;5065;46.942;7.432;2022-07-06T10:08:17;29.00;74.70
10051;DHT22;5065;46.942;7.432;2022-07-06T10:10:44;29.10;73.70
10051;DHT22;5065;46.942;7.432;2022-07-06T10:13:16;29.10;74.60
10051;DHT22;5065;46.942;7.432;2022-07-06T10:15:47;29.20;73.90
10051;DHT22;5065;46.942;7.432;2022-07-06T10:18:17;29.30;73.30
10051;DHT22;5065;46.942;7.432;2022-07-06T10:20:44;29.40;73.10
10051;DHT22;5065;46.942;7.432;2022-07-06T10:23:12;29.40;72.50
10051;DHT22;5065;46.942;7.432;2022-07-06T10:25:42;29.50;72.30
10051;DHT22;5065;46.942;7.432;2022-07-06T10:28:12;29.50;72.10
10051;DHT22;5065;46.942;7.432;2022-07-06T10:30:42;29.60;71.60
10051;DHT22;5065;46.942;7.432;2022-07-06T10:33:10;29.60;72.20
10051;DHT22;5065;46.942;7.432;2022-07-06T10:35:40;29.70;71.90
10051;DHT22;5065;46.942;7.432;2022-07-06T10:38:09;29.70;73.20
10051;DHT22;5065;46.942;7.432;2022-07-06T10:40:38;29.70;71.80
10051;DHT22;5065;46.942;7.432;2022-07-06T10:43:31;29.80;71.40
10051;DHT22;5065;46.942;7.432;2022-07-06T10:46:09;29.70;68.80
10051;DHT22;5065;46.942;7.432;2022-07-06T10:48:38;29.70;68.10
10051;DHT22;5065;46.942;7.432;2022-07-06T10:51:06;29.70;70.20
10051;DHT22;5065;46.942;7.432;2022-07-06T10:53:35;29.70;69.80
10051;DHT22;5065;46.942;7.432;2022-07-06T10:56:08;29.70;68.90
10051;DHT22;5065;46.942;7.432;2022-07-06T10:58:47;29.70;68.40
10051;DHT22;5065;46.942;7.432;2022-07-06T11:01:17;29.60;66.20
10051;DHT22;5065;46.942;7.432;2022-07-06T11:03:48;29.50;68.90
10051;DHT22;5065;46.942;7.432;2022-07-06T11:06:19;29.50;68.60
10051;DHT22;5065;46.942;7.432;2022-07-06T11:08:50;29.40;68.90
10051;DHT22;5065;46.942;7.432;2022-07-06T11:11:20;29.40;67.50
10051;DHT22;5065;46.942;7.432;2022-07-06T11:13:59;29.30;69.20
10051;DHT22;5065;46.942;7.432;2022-07-06T11:16:33;29.30;68.90
10051;DHT22;5065;46.942;7.432;2022-07-06T11:19:07;29.30;68.40
10051;DHT22;5065;46.942;7.432;2022-07-06T11:21:40;29.30;68.70
10051;DHT22;5065;46.942;7.432;2022-07-06T11:24:09;29.10;67.40
10051;DHT22;5065;46.942;7.432;2022-07-06T11:26:38;29.00;67.40
10051;DHT22;5065;46.942;7.432;2022-07-06T11:29:09;28.90;68.30
10051;DHT22;5065;46.942;7.432;2022-07-06T11:31:38;28.90;68.40
10051;DHT22;5065;46.942;7.432;2022-07-06T11:34:10;28.90;68.90
10051;DHT22;5065;46.942;7.432;2022-07-06T11:36:39;28.80;69.40
10051;DHT22;5065;46.942;7.432;2022-07-06T11:39:07;28.80;66.30
10051;DHT22;5065;46.942;7.432;2022-07-06T11:41:34;28.80;69.20
10051;DHT22;5065;46.942;7.432;2022-07-06T11:44:07;28.70;68.90
10051;DHT22;5065;46.942;7.432;2022-07-06T11:46:35;28.70;69.30
10051;DHT22;5065;46.942;7.432;2022-07-06T11:49:05;28.70;69.90
10051;DHT22;5065;46.942;7.432;2022-07-06T11:51:34;28.80;70.50
10051;DHT22;5065;46.942;7.432;2022-07-06T11:54:09;28.80;67.30
10051;DHT22;5065;46.942;7.432;2022-07-06T11:56:46;28.70;67.20
10051;DHT22;5065;46.942;7.432;2022-07-06T11:59:15;28.60;64.70
10051;DHT22;5065;46.942;7.432;2022-07-06T12:01:46;28.40;65.70
10051;DHT22;5065;46.942;7.432;2022-07-06T12:04:13;28.30;66.60
10051;DHT22;5065;46.942;7.432;2022-07-06T12:06:40;28.20;68.20
10051;DHT22;5065;46.942;7.432;2022-07-06T12:09:11;28.20;68.60
10051;DHT22;5065;46.942;7.432;2022-07-06T12:11:38;28.20;70.30
10051;DHT22;5065;46.942;7.432;2022-07-06T12:14:14;28.20;70.00
10051;DHT22;5065;46.942;7.432;2022-07-06T12:16:42;28.20;69.50
10051;DHT22;5065;46.942;7.432;2022-07-06T12:19:09;28.10;70.60
10051;DHT22;5065;46.942;7.432;2022-07-06T12:21:43;28.10;68.60
10051;DHT22;5065;46.942;7.432;2022-07-06T12:24:17;27.90;67.90
10051;DHT22;5065;46.942;7.432;2022-07-06T12:26:45;27.80;65.30
10051;DHT22;5065;46.942;7.432;2022-07-06T12:29:14;27.60;68.60
10051;DHT22;5065;46.942;7.432;2022-07-06T12:31:48;27.50;68.40
10051;DHT22;5065;46.942;7.432;2022-07-06T12:34:17;27.50;69.40
10051;DHT22;5065;46.942;7.432;2022-07-06T12:36:45;27.50;70.10
10051;DHT22;5065;46.942;7.432;2022-07-06T12:39:14;27.50;71.00
10051;DHT22;5065;46.942;7.432;2022-07-06T12:41:46;27.50;71.30
10051;DHT22;5065;46.942;7.432;2022-07-06T12:44:16;27.50;71.30
10051;DHT22;5065;46.942;7.432;2022-07-06T12:46:45;27.50;70.90
10051;DHT22;5065;46.942;7.432;2022-07-06T12:49:18;27.50;71.50
10051;DHT22;5065;46.942;7.432;2022-07-06T12:51:50;27.40;71.20
10051;DHT22;5065;46.942;7.432;2022-07-06T12:54:17;27.40;71.80
10051;DHT22;5065;46.942;7.432;2022-07-06T12:57:08;27.40;72.10
10051;DHT22;5065;46.942;7.432;2022-07-06T12:59:41;27.40;70.40
10051;DHT22;5065;46.942;7.432;2022-07-06T13:02:10;27.30;71.60
10051;DHT22;5065;46.942;7.432;2022-07-06T13:04:43;27.20;70.90
10051;DHT22;5065;46.942;7.432;2022-07-06T13:07:18;27.20;70.00
10051;DHT22;5065;46.942;7.432;2022-07-06T13:09:46;27.20;70.80
10051;DHT22;5065;46.942;7.432;2022-07-06T13:12:13;27.30;70.80
10051;DHT22;5065;46.942;7.432;2022-07-06T13:14:42;27.30;71.40
10051;DHT22;5065;46.942;7.432;2022-07-06T13:17:09;27.30;71.90
10051;DHT22;5065;46.942;7.432;2022-07-06T13:19:36;27.30;72.20
10051;DHT22;5065;46.942;7.432;2022-07-06T13:22:03;27.30;72.10
10051;DHT22;5065;46.942;7.432;2022-07-06T13:24:31;27.30;72.50
10051;DHT22;5065;46.942;7.432;2022-07-06T13:26:59;27.40;73.00
10051;DHT22;5065;46.942;7.432;2022-07-06T13:29:26;27.40;73.20
10051;DHT22;5065;46.942;7.432;2022-07-06T13:31:55;27.40;73.30
10051;DHT22;5065;46.942;7.432;2022-07-06T13:34:22;27.40;71.40
10051;DHT22;5065;46.942;7.432;2022-07-06T13:36:50;27.30;72.20
10051;DHT22;5065;46.942;7.432;2022-07-06T13:39:18;27.20;72.60
10051;DHT22;5065;46.942;7.432;2022-07-06T13:41:45;27.20;72.70
10051;DHT22;5065;46.942;7.432;2022-07-06T13:44:14;27.20;70.00
10051;DHT22;5065;46.942;7.432;2022-07-06T13:46:42;27.20;71.80
10051;DHT22;5065;46.942;7.432;2022-07-06T13:49:11;27.20;70.80
10051;DHT22;5065;46.942;7.432;2022-07-06T13:51:39;27.20;71.90
10051;DHT22;5065;46.942;7.432;2022-07-06T13:54:06;27.20;72.30
10051;DHT22;5065;46.942;7.432;2022-07-06T13:56:34;27.20;73.20
10051;DHT22;5065;46.942;7.432;2022-07-06T13:59:01;27.20;73.80
10051;DHT22;5065;46.942;7.432;2022-07-06T14:01:29;27.20;71.50
10051;DHT22;5065;46.942;7.432;2022-07-06T14:03:56;27.20;72.80
10051;DHT22;5065;46.942;7.432;2022-07-06T14:06:25;27.20;73.60
10051;DHT22;5065;46.942;7.432;2022-07-06T14:08:52;27.20;73.30
10051;DHT22;5065;46.942;7.432;2022-07-06T14:11:19;27.20;72.40
10051;DHT22;5065;46.942;7.432;2022-07-06T14:13:47;27.10;71.90
10051;DHT22;5065;46.942;7.432;2022-07-06T14:16:14;27.00;69.50
10051;DHT22;5065;46.942;7.432;2022-07-06T14:18:41;26.80;70.90
10051;DHT22;5065;46.942;7.432;2022-07-06T14:21:10;26.80;72.30
10051;DHT22;5065;46.942;7.432;2022-07-06T14:23:38;26.80;73.30
10051;DHT22;5065;46.942;7.432;2022-07-06T14:26:06;26.80;73.60
10051;DHT22;5065;46.942;7.432;2022-07-06T14:28:33;26.80;73.80
10051;DHT22;5065;46.942;7.432;2022-07-06T14:31:00;26.90;73.00
10051;DHT22;5065;46.942;7.432;2022-07-06T14:33:28;26.90;73.30
10051;DHT22;5065;46.942;7.432;2022-07-06T14:35:55;26.90;73.40
10051;DHT22;5065;46.942;7.432;2022-07-06T14:38:23;27.00;72.70
10051;DHT22;5065;46.942;7.432;2022-07-06T14:40:51;27.00;73.80
10051;DHT22;5065;46.942;7.432;2022-07-06T14:43:18;27.00;73.20
10051;DHT22;5065;46.942;7.432;2022-07-06T14:45:46;27.10;73.40
10051;DHT22;5065;46.942;7.432;2022-07-06T14:48:13;27.10;73.60
10051;DHT22;5065;46.942;7.432;2022-07-06T14:50:41;27.10;73.40
10051;DHT22;5065;46.942;7.432;2022-07-06T14:53:10;27.10;70.10
10051;DHT22;5065;46.942;7.432;2022-07-06T14:55:37;27.00;70.20
10051;DHT22;5065;46.942;7.432;2022-07-06T14:58:06;27.00;71.60
10051;DHT22;5065;46.942;7.432;2022-07-06T15:00:34;27.00;72.10
10051;DHT22;5065;46.942;7.432;2022-07-06T15:03:01;27.00;72.30
10051;DHT22;5065;46.942;7.432;2022-07-06T15:05:28;27.00;72.30
10051;DHT22;5065;46.942;7.432;2022-07-06T15:07:55;27.00;73.00
10051;DHT22;5065;46.942;7.432;2022-07-06T15:10:23;27.00;72.40
10051;DHT22;5065;46.942;7.432;2022-07-06T15:12:50;27.00;69.00
10051;DHT22;5065;46.942;7.432;2022-07-06T15:15:19;26.90;71.50
10051;DHT22;5065;46.942;7.432;2022-07-06T15:17:48;26.90;70.70
10051;DHT22;5065;46.942;7.432;2022-07-06T15:20:15;26.80;71.70
10051;DHT22;5065;46.942;7.432;2022-07-06T15:22:43;26.80;71.70
10051;DHT22;5065;46.942;7.432;2022-07-06T15:25:10;26.80;69.90
10051;DHT22;5065;46.942;7.432;2022-07-06T15:27:37;26.80;71.40
10051;DHT22;5065;46.942;7.432;2022-07-06T15:30:05;26.80;70.70
10051;DHT22;5065;46.942;7.432;2022-07-06T15:32:34;26.80;71.90
10051;DHT22;5065;46.942;7.432;2022-07-06T15:35:01;26.70;70.90
10051;DHT22;5065;46.942;7.432;2022-07-06T15:37:32;26.70;71.40
10051;DHT22;5065;46.942;7.432;2022-07-06T15:39:59;26.70;71.50
10051;DHT22;5065;46.942;7.432;2022-07-06T15:42:37;26.60;70.90
10051;DHT22;5065;46.942;7.432;2022-07-06T15:45:06;26.70;71.10
10051;DHT22;5065;46.942;7.432;2022-07-06T15:47:38;26.60;71.60
10051;DHT22;5065;46.942;7.432;2022-07-06T15:50:07;26.70;72.00
10051;DHT22;5065;46.942;7.432;2022-07-06T15:52:40;26.70;71.40
10051;DHT22;5065;46.942;7.432;2022-07-06T15:55:07;26.70;68.50